createdAt,value
2023-03-07T00:01:54.269Z,68.70
2023-03-07T00:04:21.216Z,68.41
2023-03-07T00:06:48.447Z,68.56
2023-03-07T00:09:15.491Z,68.55
2023-03-07T00:11:42.445Z,68.64
2023-03-07T00:14:09.385Z,68.72
2023-03-07T00:16:36.262Z,68.57
2023-03-07T00:19:03.170Z,68.55
2023-03-07T00:21:32.476Z,68.51
2023-03-07T00:23:59.676Z,68.50
2023-03-07T00:26:27.562Z,68.42
2023-03-07T00:28:55.287Z,68.39
2023-03-07T00:31:24.454Z,68.27
2023-03-07T00:33:51.407Z,68.32
2023-03-07T00:36:21.344Z,68.29
2023-03-07T00:38:49.036Z,68.20
2023-03-07T00:41:24.460Z,68.29
2023-03-07T00:43:52.250Z,68.47
2023-03-07T00:46:20.791Z,68.41
2023-03-07T00:48:48.216Z,68.31
2023-03-07T00:51:21.287Z,68.56
2023-03-07T00:53:49.709Z,68.70
2023-03-07T00:56:19.538Z,68.80
2023-03-07T00:58:46.338Z,68.78
2023-03-07T01:01:16.148Z,68.66
2023-03-07T01:03:44.043Z,68.73
2023-03-07T01:06:16.319Z,68.73
2023-03-07T01:08:44.240Z,68.61
2023-03-07T01:11:13.307Z,68.56
2023-03-07T01:13:40.891Z,68.49
2023-03-07T01:16:15.370Z,68.44
2023-03-07T01:18:43.556Z,68.51
2023-03-07T01:21:35.952Z,68.54
2023-03-07T01:24:05.681Z,68.61
2023-03-07T01:26:34.207Z,68.52
2023-03-07T01:29:04.891Z,68.62
2023-03-07T01:31:35.322Z,68.60
2023-03-07T01:34:03.817Z,68.51
2023-03-07T01:36:35.007Z,68.36
2023-03-07T01:39:10.707Z,68.29
2023-03-07T01:41:41.037Z,68.20
2023-03-07T01:44:21.288Z,68.19
2023-03-07T01:46:56.273Z,68.13
2023-03-07T01:49:46.434Z,68.28
2023-03-07T01:52:19.583Z,68.29
2023-03-07T01:54:58.609Z,68.15
2023-03-07T01:57:32.097Z,68.09
2023-03-07T02:00:01.858Z,67.97
2023-03-07T02:02:29.595Z,68.04
2023-03-07T02:05:10.298Z,68.18
2023-03-07T02:07:49.745Z,68.18
2023-03-07T02:10:22.165Z,68.33
2023-03-07T02:12:50.790Z,68.25
2023-03-07T02:15:18.007Z,68.20
2023-03-07T02:17:45.736Z,68.23
2023-03-07T02:20:21.842Z,68.19
2023-03-07T02:22:50.094Z,68.12
2023-03-07T02:25:29.924Z,68.42
2023-03-07T02:27:59.246Z,68.32
2023-03-07T02:30:26.908Z,68.32
2023-03-07T02:32:54.151Z,68.22
2023-03-07T02:35:24.766Z,68.26
2023-03-07T02:38:03.456Z,68.30
2023-03-07T02:40:32.318Z,68.45
2023-03-07T02:43:09.822Z,68.66
2023-03-07T02:45:38.248Z,68.51
2023-03-07T02:48:05.422Z,68.51
2023-03-07T02:50:32.570Z,68.39
2023-03-07T02:52:59.457Z,68.45
2023-03-07T02:55:26.364Z,68.36
2023-03-07T02:57:57.937Z,68.44
2023-03-07T03:00:25.062Z,68.52
2023-03-07T03:02:52.115Z,68.59
2023-03-07T03:05:19.958Z,68.59
2023-03-07T03:07:46.744Z,68.56
2023-03-07T03:10:13.592Z,68.58
2023-03-07T03:12:41.342Z,68.45
2023-03-07T03:15:09.921Z,68.28
2023-03-07T03:17:37.282Z,68.44
2023-03-07T03:20:07.770Z,68.29
2023-03-07T03:22:36.013Z,68.38
2023-03-07T03:25:05.219Z,68.29
2023-03-07T03:27:33.209Z,68.24
2023-03-07T03:30:00.330Z,68.13
2023-03-07T03:32:27.328Z,68.18
2023-03-07T03:34:54.124Z,68.17
2023-03-07T03:37:21.106Z,68.20
2023-03-07T03:39:48.197Z,68.05
2023-03-07T03:42:15.087Z,67.78
2023-03-07T03:44:42.011Z,67.64
2023-03-07T03:47:08.840Z,67.48
2023-03-07T03:49:41.264Z,67.62
2023-03-07T03:52:09.608Z,67.78
2023-03-07T03:54:36.890Z,68.10
2023-03-07T03:57:04.038Z,68.06
2023-03-07T03:59:31.156Z,68.29
2023-03-07T04:01:58.336Z,68.12
2023-03-07T04:04:25.268Z,67.89
2023-03-07T04:06:52.237Z,67.72
2023-03-07T04:09:19.329Z,67.65
2023-03-07T04:11:47.619Z,67.60
2023-03-07T04:14:14.505Z,67.66
2023-03-07T04:16:41.351Z,67.58
2023-03-07T04:19:13.110Z,67.78
2023-03-07T04:21:42.102Z,68.01
2023-03-07T04:24:09.473Z,68.05
2023-03-07T04:26:36.876Z,67.93
2023-03-07T04:29:04.532Z,67.81
2023-03-07T04:31:51.756Z,67.76
2023-03-07T04:34:18.626Z,67.70
2023-03-07T04:36:45.611Z,67.37
2023-03-07T04:39:13.461Z,67.59
2023-03-07T04:41:40.679Z,67.65
2023-03-07T04:44:27.829Z,67.69
2023-03-07T04:46:54.670Z,67.71
2023-03-07T04:49:21.572Z,67.88
2023-03-07T04:51:48.615Z,67.90
2023-03-07T04:54:16.685Z,67.94
2023-03-07T04:56:45.615Z,68.05
2023-03-07T04:59:12.521Z,67.91
2023-03-07T05:01:40.100Z,67.82
2023-03-07T05:04:07.189Z,67.73
2023-03-07T05:06:34.258Z,67.69
2023-03-07T05:09:01.547Z,67.82
2023-03-07T05:11:28.833Z,68.05
2023-03-07T05:13:55.889Z,67.89
2023-03-07T05:16:23.310Z,67.85
2023-03-07T05:18:50.314Z,67.90
2023-03-07T05:21:17.610Z,67.80
2023-03-07T05:23:44.939Z,67.83
2023-03-07T05:26:12.817Z,68.03
2023-03-07T05:28:39.666Z,68.08
2023-03-07T05:31:06.906Z,68.21
2023-03-07T05:33:34.174Z,68.05
2023-03-07T05:36:02.433Z,68.12
2023-03-07T05:38:29.914Z,68.08
2023-03-07T05:40:56.792Z,68.24
2023-03-07T05:43:23.706Z,68.22
2023-03-07T05:45:51.781Z,68.15
2023-03-07T05:48:18.991Z,68.25
2023-03-07T05:50:46.145Z,68.40
2023-03-07T05:53:13.627Z,68.45
2023-03-07T05:55:40.579Z,68.55
2023-03-07T05:58:07.763Z,68.15
2023-03-07T06:00:34.646Z,67.85
2023-03-07T06:03:03.469Z,67.69
2023-03-07T06:05:30.900Z,67.89
2023-03-07T06:07:57.914Z,68.17
2023-03-07T06:10:25.913Z,68.27
2023-03-07T06:12:53.936Z,68.56
2023-03-07T06:15:23.738Z,68.52
2023-03-07T06:17:54.129Z,68.49
2023-03-07T06:20:21.429Z,68.53
2023-03-07T06:22:49.305Z,68.74
2023-03-07T06:25:17.116Z,68.83
2023-03-07T06:27:44.430Z,68.83
2023-03-07T06:30:12.819Z,68.61
2023-03-07T06:32:40.032Z,68.78
2023-03-07T06:35:07.628Z,69.04
2023-03-07T06:37:34.681Z,68.99
2023-03-07T06:40:06.363Z,68.99
2023-03-07T06:42:34.110Z,68.81
2023-03-07T06:45:02.223Z,68.76
2023-03-07T06:47:29.198Z,68.69
2023-03-07T06:49:56.135Z,68.84
2023-03-07T06:52:23.034Z,68.80
2023-03-07T06:54:49.953Z,69.00
2023-03-07T06:57:16.967Z,68.76
2023-03-07T06:59:44.029Z,68.60
2023-03-07T07:02:14.689Z,68.37
2023-03-07T07:04:41.736Z,68.33
2023-03-07T07:07:08.876Z,68.41
2023-03-07T07:09:35.910Z,68.55
2023-03-07T07:12:03.226Z,68.84
2023-03-07T07:14:30.287Z,68.81
2023-03-07T07:16:57.304Z,68.72
2023-03-07T07:19:26.689Z,68.54
2023-03-07T07:21:54.252Z,68.71
2023-03-07T07:24:21.808Z,68.77
2023-03-07T07:26:48.862Z,69.12
2023-03-07T07:29:16.177Z,69.55
2023-03-07T07:31:43.398Z,70.84
2023-03-07T07:34:10.980Z,70.83
2023-03-07T07:36:38.166Z,70.77
2023-03-07T07:39:05.930Z,70.41
2023-03-07T07:41:34.547Z,69.33
2023-03-07T07:44:01.517Z,67.99
2023-03-07T07:46:35.319Z,67.81
2023-03-07T07:49:03.658Z,67.57
2023-03-07T07:51:31.474Z,68.41
2023-03-07T07:53:58.370Z,68.52
2023-03-07T07:56:25.572Z,67.07
2023-03-07T07:58:52.908Z,66.62
2023-03-07T08:01:22.527Z,66.98
2023-03-07T08:03:49.955Z,65.87
2023-03-07T08:06:26.697Z,64.82
2023-03-07T08:08:54.512Z,63.87
2023-03-07T08:11:23.148Z,63.69
2023-03-07T08:13:50.276Z,64.89
2023-03-07T08:16:22.708Z,65.61
2023-03-07T08:18:52.080Z,66.02
2023-03-07T08:21:19.705Z,65.73
2023-03-07T08:23:46.763Z,65.78
2023-03-07T08:26:13.923Z,65.62
2023-03-07T08:28:42.362Z,64.16
2023-03-07T08:31:11.703Z,63.29
2023-03-07T08:33:39.059Z,63.32
2023-03-07T08:36:06.909Z,63.29
2023-03-07T08:38:34.200Z,64.41
2023-03-07T08:41:06.175Z,63.57
2023-03-07T08:43:34.810Z,64.34
2023-03-07T08:46:01.819Z,64.29
2023-03-07T08:48:29.224Z,63.30
2023-03-07T08:50:56.546Z,62.74
2023-03-07T08:53:23.921Z,62.36
2023-03-07T08:55:51.068Z,61.41
2023-03-07T08:58:18.061Z,61.21
2023-03-07T09:00:45.024Z,61.43
2023-03-07T09:03:12.057Z,62.05
2023-03-07T09:05:39.280Z,62.51
2023-03-07T09:08:08.142Z,61.96
2023-03-07T09:10:35.912Z,61.40
2023-03-07T09:13:03.416Z,62.32
2023-03-07T09:15:30.227Z,62.04
2023-03-07T09:17:57.191Z,62.27
2023-03-07T09:20:25.060Z,62.52
2023-03-07T09:22:53.817Z,63.45
2023-03-07T09:25:20.879Z,64.80
2023-03-07T09:27:47.876Z,65.13
2023-03-07T09:30:15.099Z,64.31
2023-03-07T09:32:42.902Z,64.62
2023-03-07T09:35:10.591Z,63.92
2023-03-07T09:37:38.435Z,63.94
2023-03-07T09:40:09.400Z,61.45
2023-03-07T09:42:36.699Z,60.28
2023-03-07T09:45:29.306Z,59.91
2023-03-07T09:48:10.585Z,60.32
2023-03-07T09:50:53.818Z,61.43
2023-03-07T09:53:38.285Z,61.23
2023-03-07T09:56:50.405Z,61.57
2023-03-07T09:59:25.462Z,62.20
2023-03-07T10:02:01.423Z,61.99
2023-03-07T10:04:40.952Z,61.96
2023-03-07T10:07:10.345Z,62.11
2023-03-07T10:09:37.669Z,62.30
2023-03-07T10:12:33.647Z,62.29
2023-03-07T10:15:28.699Z,62.46
2023-03-07T10:17:58.308Z,63.00
2023-03-07T10:20:49.494Z,63.29
2023-03-07T10:23:55.165Z,63.29
2023-03-07T10:26:33.200Z,63.78
2023-03-07T10:29:09.747Z,64.22
2023-03-07T10:31:41.245Z,64.51
2023-03-07T10:34:32.030Z,64.67
2023-03-07T10:37:18.901Z,64.88
2023-03-07T10:39:56.606Z,64.61
2023-03-07T10:42:26.723Z,64.43
2023-03-07T10:44:54.062Z,63.21
2023-03-07T10:47:25.297Z,62.63
2023-03-07T10:50:07.001Z,62.61
2023-03-07T10:52:47.321Z,63.19
2023-03-07T10:55:35.240Z,63.23
2023-03-07T10:58:29.839Z,62.65
2023-03-07T11:01:00.092Z,62.67
2023-03-07T11:03:55.223Z,62.80
2023-03-07T11:06:36.862Z,63.27
2023-03-07T11:09:13.104Z,63.02
2023-03-07T11:11:40.155Z,63.47
2023-03-07T11:14:15.705Z,64.23
2023-03-07T11:16:50.860Z,64.72
2023-03-07T11:19:32.669Z,64.34
2023-03-07T11:22:01.693Z,64.02
2023-03-07T11:24:31.555Z,63.88
2023-03-07T11:27:00.186Z,64.31
2023-03-07T11:29:33.845Z,64.39
2023-03-07T11:32:14.342Z,64.45
2023-03-07T11:34:46.293Z,63.54
2023-03-07T11:37:28.348Z,63.13
2023-03-07T11:40:20.450Z,63.66
2023-03-07T11:43:14.793Z,64.16
2023-03-07T11:46:03.926Z,64.16
2023-03-07T11:48:56.611Z,63.94
2023-03-07T11:51:45.327Z,64.00
2023-03-07T11:54:18.825Z,64.36
2023-03-07T11:56:51.792Z,64.17
2023-03-07T11:59:40.734Z,64.44
2023-03-07T12:02:43.009Z,64.69
2023-03-07T12:05:16.081Z,64.47
2023-03-07T12:07:46.067Z,64.27
2023-03-07T12:10:29.599Z,64.20
2023-03-07T12:13:20.490Z,63.09
2023-03-07T12:16:28.806Z,62.56
2023-03-07T12:18:56.856Z,62.35
2023-03-07T12:21:36.044Z,63.16
2023-03-07T12:24:18.929Z,63.12
2023-03-07T12:26:56.477Z,63.14
2023-03-07T12:29:42.021Z,62.98
2023-03-07T12:32:21.633Z,62.55
2023-03-07T12:34:59.610Z,62.16
2023-03-07T12:37:56.111Z,62.80
2023-03-07T12:40:49.908Z,63.16
2023-03-07T12:43:21.611Z,62.24
2023-03-07T12:46:02.216Z,61.73
2023-03-07T12:48:46.566Z,62.61
2023-03-07T12:51:31.637Z,62.98
2023-03-07T12:54:27.177Z,62.66
2023-03-07T12:57:09.275Z,62.32
2023-03-07T12:59:40.658Z,62.37
2023-03-07T13:02:30.399Z,62.47
2023-03-07T13:05:00.165Z,62.62
2023-03-07T13:07:33.910Z,62.86
2023-03-07T13:10:06.488Z,62.90
2023-03-07T13:12:36.169Z,63.03
2023-03-07T13:15:26.165Z,63.16
2023-03-07T13:17:57.296Z,63.25
2023-03-07T13:20:27.516Z,63.08
2023-03-07T13:22:54.703Z,63.28
2023-03-07T13:25:28.068Z,63.47
2023-03-07T13:28:04.963Z,63.54
2023-03-07T13:30:33.628Z,63.59
2023-03-07T13:33:03.247Z,63.57
2023-03-07T13:35:39.147Z,63.65
2023-03-07T13:38:15.558Z,63.93
2023-03-07T13:40:46.612Z,64.08
2023-03-07T13:43:19.800Z,64.15
2023-03-07T13:46:05.333Z,63.94
2023-03-07T13:48:32.890Z,63.75
2023-03-07T13:51:03.363Z,63.64
2023-03-07T13:54:00.842Z,63.44
2023-03-07T13:56:35.358Z,63.39
2023-03-07T13:59:32.241Z,63.62
2023-03-07T14:02:02.002Z,63.66
2023-03-07T14:04:45.438Z,63.85
2023-03-07T14:07:32.017Z,63.79
2023-03-07T14:10:22.310Z,63.78
2023-03-07T14:13:11.725Z,64.02
2023-03-07T14:15:47.615Z,63.94
2023-03-07T14:18:36.553Z,63.99
2023-03-07T14:21:34.992Z,64.10
2023-03-07T14:24:28.625Z,64.07
2023-03-07T14:27:03.224Z,64.17
2023-03-07T14:29:31.099Z,64.33
2023-03-07T14:32:01.181Z,64.17
2023-03-07T14:34:28.309Z,64.09
2023-03-07T14:37:04.826Z,64.07
2023-03-07T14:39:59.782Z,64.19
2023-03-07T14:42:42.518Z,64.21
2023-03-07T14:45:34.529Z,64.21
2023-03-07T14:48:08.311Z,64.33
2023-03-07T14:50:40.019Z,64.35
2023-03-07T14:53:25.886Z,64.41
2023-03-07T14:55:54.667Z,64.45
2023-03-07T14:58:25.776Z,64.42
2023-03-07T15:01:07.078Z,64.49
2023-03-07T15:03:34.406Z,64.41
2023-03-07T15:06:03.549Z,64.43
2023-03-07T15:08:38.544Z,64.51
2023-03-07T15:11:28.591Z,64.60
2023-03-07T15:13:58.192Z,64.61
2023-03-07T15:16:31.130Z,64.70
2023-03-07T15:19:19.554Z,64.78
2023-03-07T15:21:51.200Z,64.73
2023-03-07T15:24:29.929Z,64.62
2023-03-07T15:26:59.199Z,64.67
2023-03-07T15:29:29.424Z,64.77
2023-03-07T15:32:07.429Z,64.76
2023-03-07T15:34:38.947Z,64.72
2023-03-07T15:37:28.875Z,64.88
2023-03-07T15:39:59.942Z,64.80
2023-03-07T15:42:28.262Z,64.51
2023-03-07T15:45:02.547Z,64.50
2023-03-07T15:47:32.887Z,64.52
2023-03-07T15:50:07.480Z,64.60
2023-03-07T15:52:39.982Z,64.55
2023-03-07T15:55:18.783Z,64.67
2023-03-07T15:57:56.447Z,64.60
2023-03-07T16:00:39.822Z,64.64
2023-03-07T16:03:28.283Z,64.55
2023-03-07T16:05:57.301Z,64.58
2023-03-07T16:08:24.592Z,64.47
2023-03-07T16:10:57.719Z,64.52
2023-03-07T16:13:30.876Z,64.57
2023-03-07T16:16:00.473Z,64.57
2023-03-07T16:18:29.972Z,64.43
2023-03-07T16:20:57.832Z,64.47
2023-03-07T16:23:25.567Z,64.41
2023-03-07T16:25:52.678Z,64.35
2023-03-07T16:28:19.717Z,64.34
2023-03-07T16:30:47.019Z,64.24
2023-03-07T16:33:15.231Z,64.25
2023-03-07T16:35:42.373Z,64.28
2023-03-07T16:38:09.780Z,64.30
2023-03-07T16:40:42.709Z,64.23
2023-03-07T16:43:42.710Z,64.24
2023-03-07T16:46:16.818Z,64.26
2023-03-07T16:48:44.991Z,64.22
2023-03-07T16:51:19.071Z,64.17
2023-03-07T16:53:47.661Z,64.28
2023-03-07T16:56:25.276Z,64.27
2023-03-07T16:58:53.188Z,64.28
2023-03-07T17:01:20.467Z,64.32
2023-03-07T17:03:47.783Z,64.26
2023-03-07T17:06:16.745Z,64.15
2023-03-07T17:08:45.210Z,64.07
2023-03-07T17:11:20.073Z,64.12
2023-03-07T17:13:48.952Z,64.18
2023-03-07T17:16:17.572Z,64.15
2023-03-07T17:18:45.490Z,64.12
2023-03-07T17:21:17.777Z,64.00
2023-03-07T17:23:45.654Z,64.06
2023-03-07T17:26:27.209Z,64.13
2023-03-07T17:28:55.215Z,64.13
2023-03-07T17:31:22.274Z,64.17
2023-03-07T17:33:50.060Z,64.22
2023-03-07T17:36:17.439Z,64.25
2023-03-07T17:38:44.502Z,64.09
2023-03-07T17:41:11.551Z,64.14
2023-03-07T17:43:38.573Z,64.17
2023-03-07T17:46:10.308Z,64.13
2023-03-07T17:48:38.442Z,64.13
2023-03-07T17:51:10.030Z,64.11
2023-03-07T17:53:38.811Z,64.12
2023-03-07T17:56:10.740Z,64.21
2023-03-07T17:58:39.140Z,64.05
2023-03-07T18:01:08.538Z,64.14
2023-03-07T18:03:35.554Z,64.06
2023-03-07T18:06:03.271Z,64.11
2023-03-07T18:08:31.028Z,64.08
2023-03-07T18:11:06.278Z,64.03
2023-03-07T18:13:33.588Z,64.07
2023-03-07T18:16:01.165Z,64.08
2023-03-07T18:18:33.421Z,64.01
2023-03-07T18:21:07.078Z,63.99
2023-03-07T18:23:35.363Z,64.11
2023-03-07T18:26:08.572Z,63.95
2023-03-07T18:28:39.486Z,63.95
2023-03-07T18:31:09.255Z,63.92
2023-03-07T18:33:36.666Z,63.90
2023-03-07T18:36:05.526Z,63.92
2023-03-07T18:38:33.158Z,63.98
2023-03-07T18:41:04.792Z,63.87
2023-03-07T18:43:32.038Z,63.78
2023-03-07T18:45:59.714Z,63.86
2023-03-07T18:48:26.819Z,63.83
2023-03-07T18:51:02.390Z,63.88
2023-03-07T18:53:29.994Z,63.92
2023-03-07T18:55:57.539Z,63.86
2023-03-07T18:58:24.725Z,63.94
2023-03-07T19:00:51.941Z,63.92
2023-03-07T19:03:19.197Z,63.94
2023-03-07T19:05:49.163Z,63.82
2023-03-07T19:08:17.339Z,63.88
2023-03-07T19:10:47.317Z,63.92
2023-03-07T19:13:14.336Z,63.89
2023-03-07T19:15:41.918Z,63.90
2023-03-07T19:18:09.507Z,63.96
2023-03-07T19:20:40.535Z,63.93
2023-03-07T19:23:07.598Z,63.99
2023-03-07T19:25:35.756Z,63.95
2023-03-07T19:28:03.253Z,63.90
2023-03-07T19:30:33.115Z,64.06
2023-03-07T19:33:00.569Z,64.01
2023-03-07T19:35:27.527Z,64.01
2023-03-07T19:37:54.746Z,64.01
2023-03-07T19:40:24.136Z,64.00
2023-03-07T19:42:51.231Z,63.88
2023-03-07T19:45:18.357Z,64.03
2023-03-07T19:47:45.643Z,63.92
2023-03-07T19:50:12.774Z,63.78
2023-03-07T19:52:39.758Z,63.88
2023-03-07T19:55:07.256Z,63.85
2023-03-07T19:57:36.099Z,63.94
2023-03-07T20:00:04.815Z,63.98
2023-03-07T20:02:38.660Z,64.03
2023-03-07T20:05:06.145Z,63.92
2023-03-07T20:07:33.302Z,63.91
2023-03-07T20:10:00.184Z,63.96
2023-03-07T20:12:27.052Z,63.89
2023-03-07T20:14:53.915Z,63.84
2023-03-07T20:17:21.010Z,63.83
2023-03-07T20:19:50.903Z,63.83
2023-03-07T20:22:18.152Z,63.86
2023-03-07T20:24:45.203Z,63.88
2023-03-07T20:27:12.283Z,63.85
2023-03-07T20:29:39.212Z,63.79
2023-03-07T20:32:06.208Z,63.87
2023-03-07T20:34:33.555Z,63.93
2023-03-07T20:37:00.613Z,64.03
2023-03-07T20:39:27.712Z,64.01
2023-03-07T20:41:54.682Z,64.03
2023-03-07T20:44:21.746Z,64.14
2023-03-07T20:46:48.899Z,64.16
2023-03-07T20:49:16.444Z,64.20
2023-03-07T20:51:44.427Z,64.33
2023-03-07T20:54:15.055Z,64.46
2023-03-07T20:56:42.598Z,64.47
2023-03-07T20:59:13.442Z,64.50
2023-03-07T21:01:40.679Z,64.50
2023-03-07T21:04:13.142Z,64.63
2023-03-07T21:06:42.935Z,64.68
2023-03-07T21:09:14.854Z,64.79
2023-03-07T21:11:47.752Z,64.86
2023-03-07T21:14:15.878Z,64.93
2023-03-07T21:16:46.288Z,65.03
2023-03-07T21:19:13.715Z,65.02
2023-03-07T21:21:40.942Z,65.06
2023-03-07T21:24:08.755Z,65.20
2023-03-07T21:26:36.682Z,65.18
2023-03-07T21:29:05.033Z,65.13
2023-03-07T21:31:35.130Z,65.27
2023-03-07T21:34:05.126Z,65.25
2023-03-07T21:36:31.959Z,65.23
2023-03-07T21:39:00.147Z,65.43
2023-03-07T21:41:29.318Z,65.56
2023-03-07T21:43:58.118Z,65.65
2023-03-07T21:46:26.428Z,65.78
2023-03-07T21:48:53.972Z,65.72
2023-03-07T21:51:22.513Z,65.69
2023-03-07T21:53:49.536Z,65.77
2023-03-07T21:56:17.649Z,65.93
2023-03-07T21:58:48.826Z,65.96
2023-03-07T22:01:19.221Z,66.15
2023-03-07T22:03:46.592Z,66.11
2023-03-07T22:06:16.434Z,66.15
2023-03-07T22:08:43.992Z,66.20
2023-03-07T22:11:13.067Z,66.38
2023-03-07T22:13:41.997Z,66.49
2023-03-07T22:16:13.209Z,66.52
2023-03-07T22:18:40.577Z,66.54
2023-03-07T22:21:14.274Z,66.70
2023-03-07T22:23:42.395Z,66.70
2023-03-07T22:26:11.195Z,66.78
2023-03-07T22:28:38.592Z,66.73
2023-03-07T22:31:09.639Z,66.81
2023-03-07T22:33:36.809Z,66.76
2023-03-07T22:36:06.793Z,66.83
2023-03-07T22:38:34.167Z,66.86
2023-03-07T22:41:06.139Z,66.84
2023-03-07T22:43:35.635Z,66.79
2023-03-07T22:46:03.551Z,66.89
2023-03-07T22:48:31.172Z,66.90
2023-03-07T22:51:04.340Z,66.85
2023-03-07T22:53:35.687Z,66.89
2023-03-07T22:56:03.075Z,66.96
2023-03-07T22:58:30.685Z,66.85
2023-03-07T23:00:57.839Z,66.81
2023-03-07T23:03:24.988Z,66.75
2023-03-07T23:05:51.942Z,66.73
2023-03-07T23:08:18.777Z,66.68
2023-03-07T23:10:45.870Z,66.57
2023-03-07T23:13:12.923Z,66.62
2023-03-07T23:15:41.614Z,66.64
2023-03-07T23:18:09.168Z,66.47
2023-03-07T23:20:37.864Z,66.37
2023-03-07T23:23:05.076Z,66.65
2023-03-07T23:25:33.393Z,66.54
2023-03-07T23:28:00.602Z,66.48
2023-03-07T23:30:27.817Z,66.25
2023-03-07T23:32:55.513Z,66.32
2023-03-07T23:35:24.009Z,66.34
2023-03-07T23:37:50.874Z,66.35
2023-03-07T23:40:18.019Z,66.50
2023-03-07T23:42:44.934Z,66.56
2023-03-07T23:45:11.827Z,66.56
2023-03-07T23:47:39.802Z,66.51
2023-03-07T23:50:08.162Z,66.69
2023-03-07T23:52:35.182Z,66.80
2023-03-07T23:55:02.158Z,66.67
2023-03-07T23:57:29.022Z,66.73
2023-03-07T23:59:55.981Z,66.63
